Time;durP1;ratioP1;P1;durP2;ratioP2;P2;SDS_P1;SDS_P2;PMS_P1;PMS_P2;Temp;Humidity;BMP_temperature;BMP_pressure;BME280_temperature;BME280_humidity;BME280_pressure;Samples;Min_cycle;Max_cycle;Signal;HPM_P1;HPM_P2
2023/12/12 00:01:42;;;;;;;4.13;2.28;;;4.70;99.90;;;;;;4880135;28;93810;-31
2023/12/12 00:04:08;;;;;;;13.88;3.40;;;4.70;99.90;;;;;;4879127;28;94353;-30
2023/12/12 00:06:34;;;;;;;2.75;1.77;;;4.60;99.90;;;;;;4879591;28;94287;-34
2023/12/12 00:08:59;;;;;;;4.68;3.25;;;4.60;99.90;;;;;;4879676;28;93815;-32
2023/12/12 00:11:25;;;;;;;3.08;2.35;;;4.60;99.90;;;;;;4879223;28;94136;-32
2023/12/12 00:13:51;;;;;;;4.93;2.75;;;4.60;99.90;;;;;;4880478;28;93361;-31
2023/12/12 00:16:16;;;;;;;6.32;2.33;;;4.50;99.90;;;;;;4877792;28;94430;-33
2023/12/12 00:18:42;;;;;;;3.50;1.73;;;4.50;99.90;;;;;;4871182;28;94994;-34
2023/12/12 00:21:07;;;;;;;7.15;3.70;;;4.40;99.90;;;;;;4874813;28;93668;-34
2023/12/12 00:23:33;;;;;;;4.75;2.75;;;4.40;99.90;;;;;;4879709;28;93739;-33
2023/12/12 00:25:58;;;;;;;3.95;2.42;;;4.40;99.90;;;;;;4879184;28;94716;-32
2023/12/12 00:28:25;;;;;;;5.40;3.20;;;4.40;99.90;;;;;;4879302;28;93504;-33
2023/12/12 00:30:51;;;;;;;6.25;3.03;;;4.30;99.90;;;;;;4879956;28;92589;-34
2023/12/12 00:33:17;;;;;;;3.72;2.80;;;4.30;99.90;;;;;;4879035;28;93044;-34
2023/12/12 00:35:43;;;;;;;3.05;1.85;;;4.30;99.90;;;;;;4878278;28;94680;-32
2023/12/12 00:38:08;;;;;;;4.40;2.65;;;4.30;99.90;;;;;;4879637;28;94736;-32
2023/12/12 00:40:34;;;;;;;10.65;4.53;;;4.30;99.90;;;;;;4879445;28;93197;-33
2023/12/12 00:42:59;;;;;;;3.60;2.35;;;4.30;99.90;;;;;;4879131;28;92545;-33
2023/12/12 00:45:25;;;;;;;3.65;3.20;;;4.30;99.90;;;;;;4877802;28;95531;-33
2023/12/12 00:47:50;;;;;;;4.28;2.63;;;4.20;99.90;;;;;;4879558;28;95848;-33
2023/12/12 00:50:16;;;;;;;2.75;2.20;;;4.20;99.90;;;;;;4878820;28;93754;-32
2023/12/12 00:52:42;;;;;;;6.95;2.55;;;4.20;99.90;;;;;;4878889;28;93515;-33
2023/12/12 00:55:08;;;;;;;5.28;2.65;;;4.10;99.90;;;;;;4878902;28;94401;-31
2023/12/12 00:57:33;;;;;;;2.95;2.67;;;4.10;99.90;;;;;;4878974;28;94588;-33
2023/12/12 00:59:59;;;;;;;3.60;2.60;;;4.00;99.90;;;;;;4879305;28;92112;-31
2023/12/12 01:02:26;;;;;;;7.03;2.78;;;4.00;99.90;;;;;;4878171;28;94237;-32
2023/12/12 01:04:52;;;;;;;4.38;3.10;;;3.90;99.90;;;;;;4878276;28;95327;-34
2023/12/12 01:07:18;;;;;;;3.55;2.20;;;4.00;99.90;;;;;;4879412;28;94603;-31
2023/12/12 01:09:44;;;;;;;6.45;3.22;;;3.90;99.90;;;;;;4878291;28;94124;-31
2023/12/12 01:12:09;;;;;;;3.90;3.35;;;3.90;99.90;;;;;;4878788;28;93108;-32
2023/12/12 01:14:35;;;;;;;4.25;3.03;;;3.90;99.90;;;;;;4878705;28;95494;-32
2023/12/12 01:17:03;;;;;;;6.88;2.33;;;3.80;99.90;;;;;;4878901;28;94657;-31
2023/12/12 01:19:29;;;;;;;5.40;3.45;;;3.80;99.90;;;;;;4879373;28;92884;-32
2023/12/12 01:21:55;;;;;;;7.85;3.92;;;3.80;99.90;;;;;;4878723;28;94562;-33
2023/12/12 01:24:20;;;;;;;4.97;2.10;;;3.70;99.90;;;;;;4878812;28;94347;-30
2023/12/12 01:26:46;;;;;;;1.75;1.65;;;3.70;99.90;;;;;;4879426;28;93508;-31
2023/12/12 01:29:16;;;;;;;2.33;2.13;;;3.70;99.90;;;;;;4880006;28;92630;-30
2023/12/12 01:31:44;;;;;;;4.72;2.22;;;3.70;99.90;;;;;;4881990;28;94632;-31
2023/12/12 01:34:10;;;;;;;13.18;2.47;;;3.60;99.90;;;;;;4880561;28;95720;-34
2023/12/12 01:36:36;;;;;;;5.68;2.72;;;3.60;99.90;;;;;;4881696;28;96187;-32
2023/12/12 01:39:01;;;;;;;3.90;2.88;;;3.60;99.90;;;;;;4881946;28;93471;-31
2023/12/12 01:41:27;;;;;;;4.53;2.28;;;3.60;99.90;;;;;;4882221;28;92927;-31
2023/12/12 01:43:53;;;;;;;2.40;2.20;;;3.50;99.90;;;;;;4881739;28;94771;-34
2023/12/12 01:46:20;;;;;;;8.27;2.40;;;3.50;99.90;;;;;;4881482;28;94705;-32
2023/12/12 01:48:46;;;;;;;4.07;2.03;;;3.50;99.90;;;;;;4882153;28;93679;-34
2023/12/12 01:51:12;;;;;;;4.05;2.63;;;3.50;99.90;;;;;;4882051;28;94046;-31
2023/12/12 01:53:43;;;;;;;2.25;1.95;;;3.50;99.90;;;;;;4881299;28;95080;-34
2023/12/12 01:56:10;;;;;;;3.85;1.98;;;3.50;99.90;;;;;;4881427;28;94476;-35
2023/12/12 01:58:37;;;;;;;19.95;2.50;;;3.50;99.90;;;;;;4881135;28;93694;-31
2023/12/12 02:01:04;;;;;;;17.10;3.17;;;3.40;99.90;;;;;;4881881;28;94596;-33
2023/12/12 02:03:30;;;;;;;3.65;3.33;;;3.40;99.90;;;;;;4880972;28;94647;-33
2023/12/12 02:05:58;;;;;;;3.15;2.85;;;3.40;99.90;;;;;;4880971;28;94537;-35
2023/12/12 02:08:26;;;;;;;15.48;2.83;;;3.40;99.90;;;;;;4882034;28;95163;-33
2023/12/12 02:10:52;;;;;;;;;;;3.50;99.90;;;;;;4882541;28;92286;-31
2023/12/12 02:13:18;;;;;;;3.00;2.10;;;3.50;99.90;;;;;;4880731;28;94599;-30
2023/12/12 02:15:44;;;;;;;3.58;1.98;;;3.50;99.90;;;;;;4881948;28;95366;-30
2023/12/12 02:18:09;;;;;;;3.58;2.05;;;3.40;99.90;;;;;;4882095;28;93724;-34
2023/12/12 02:20:35;;;;;;;2.65;2.45;;;3.40;99.90;;;;;;4881028;28;93448;-32
2023/12/12 02:23:01;;;;;;;6.90;2.38;;;3.40;99.90;;;;;;4880370;28;95569;-30
2023/12/12 02:25:26;;;;;;;7.03;3.65;;;3.40;99.90;;;;;;4881072;28;94947;-33
2023/12/12 02:27:52;;;;;;;4.07;2.17;;;3.40;99.90;;;;;;4881682;28;94305;-31
2023/12/12 02:30:18;;;;;;;5.78;2.97;;;3.40;99.90;;;;;;4881744;28;92215;-33
2023/12/12 02:32:44;;;;;;;2.78;2.40;;;3.30;99.90;;;;;;4881516;28;93628;-33
2023/12/12 02:35:10;;;;;;;4.30;2.60;;;3.40;99.90;;;;;;4879915;28;94010;-32
2023/12/12 02:37:35;;;;;;;7.15;2.83;;;3.30;99.90;;;;;;4880979;28;93811;-34
2023/12/12 02:40:01;;;;;;;5.07;4.32;;;3.30;99.90;;;;;;4881146;28;92740;-30
2023/12/12 02:42:28;;;;;;;11.43;4.35;;;3.30;99.90;;;;;;4881851;28;93775;-31
2023/12/12 02:44:56;;;;;;;3.45;2.78;;;3.30;99.90;;;;;;4880479;28;94088;-35
2023/12/12 02:47:22;;;;;;;8.00;3.92;;;3.30;99.90;;;;;;4881032;28;93151;-33
2023/12/12 02:49:49;;;;;;;6.57;3.60;;;3.30;99.90;;;;;;4880988;28;93265;-33
2023/12/12 02:52:14;;;;;;;3.88;3.15;;;3.30;99.90;;;;;;4880262;28;94760;-34
2023/12/12 02:54:40;;;;;;;4.45;3.55;;;3.30;99.90;;;;;;4881201;28;94513;-31
2023/12/12 02:57:07;;;;;;;5.45;3.65;;;3.30;99.90;;;;;;4880220;28;94581;-33
2023/12/12 02:59:32;;;;;;;7.97;4.47;;;3.30;99.90;;;;;;4881017;28;92459;-31
2023/12/12 03:01:58;;;;;;;9.00;4.55;;;3.20;99.90;;;;;;4879629;28;94720;-32
2023/12/12 03:04:24;;;;;;;6.85;3.97;;;3.20;99.90;;;;;;4880612;28;94320;-35
2023/12/12 03:06:49;;;;;;;8.40;4.45;;;3.20;99.90;;;;;;4881575;28;92185;-32
2023/12/12 03:09:15;;;;;;;7.55;4.95;;;3.20;99.90;;;;;;4879314;28;94128;-33
2023/12/12 03:11:40;;;;;;;6.32;5.25;;;3.20;99.90;;;;;;4879572;28;96522;-31
2023/12/12 03:14:07;;;;;;;11.52;5.57;;;3.20;99.90;;;;;;4880402;28;95462;-31
2023/12/12 03:16:32;;;;;;;7.65;4.28;;;3.20;99.90;;;;;;4880968;28;94324;-31
2023/12/12 03:18:58;;;;;;;9.27;5.75;;;3.20;99.90;;;;;;4880404;28;93178;-32
2023/12/12 03:21:23;;;;;;;8.88;5.18;;;3.20;99.90;;;;;;4879765;28;94978;-31
2023/12/12 03:23:49;;;;;;;8.20;4.18;;;3.20;99.90;;;;;;4880353;28;94631;-33
2023/12/12 03:26:14;;;;;;;9.38;5.07;;;3.20;99.90;;;;;;4880251;28;94314;-35
2023/12/12 03:28:40;;;;;;;7.70;4.63;;;3.20;99.90;;;;;;4881206;28;92034;-31
2023/12/12 03:31:06;;;;;;;9.57;6.05;;;3.20;99.90;;;;;;4879580;28;94820;-32
2023/12/12 03:33:32;;;;;;;26.70;5.95;;;3.20;99.90;;;;;;4879619;28;95001;-34
2023/12/12 03:35:58;;;;;;;6.53;4.68;;;3.30;99.90;;;;;;4879528;28;93506;-31
2023/12/12 03:38:23;;;;;;;11.90;4.97;;;3.30;99.90;;;;;;4880343;28;93895;-33
2023/12/12 03:40:49;;;;;;;8.13;5.65;;;3.30;99.90;;;;;;4880057;28;95171;-30
2023/12/12 03:43:15;;;;;;;9.98;6.65;;;3.30;99.90;;;;;;4879827;28;94175;-32
2023/12/12 03:45:42;;;;;;;9.13;5.65;;;3.30;99.90;;;;;;4880530;28;94231;-34
2023/12/12 03:48:07;;;;;;;7.80;6.22;;;3.30;99.90;;;;;;4880404;28;94346;-30
2023/12/12 03:50:33;;;;;;;8.35;5.13;;;3.30;99.90;;;;;;4879345;28;95036;-33
2023/12/12 03:52:58;;;;;;;11.40;5.80;;;3.30;99.90;;;;;;4879874;28;95135;-35
2023/12/12 03:55:24;;;;;;;7.50;5.45;;;3.30;99.90;;;;;;4879799;28;94235;-31
2023/12/12 03:57:50;;;;;;;8.40;5.13;;;3.20;99.90;;;;;;4879889;28;94389;-34
2023/12/12 04:00:15;;;;;;;11.32;6.78;;;3.30;99.90;;;;;;4878411;28;95891;-33
2023/12/12 04:02:41;;;;;;;11.25;5.85;;;3.30;99.90;;;;;;4879453;28;95128;-32
2023/12/12 04:05:10;;;;;;;10.05;4.88;;;3.30;99.90;;;;;;4879957;28;95313;-33
2023/12/12 04:07:37;;;;;;;11.43;6.35;;;3.30;99.90;;;;;;4880317;28;93439;-30
2023/12/12 04:10:05;;;;;;;9.75;5.53;;;3.30;99.90;;;;;;4878267;28;94415;-31
2023/12/12 04:12:30;;;;;;;13.40;6.50;;;3.30;99.90;;;;;;4879676;28;94436;-33
2023/12/12 04:14:56;;;;;;;10.23;6.55;;;3.30;99.90;;;;;;4879786;28;93982;-33
2023/12/12 04:17:21;;;;;;;7.40;5.55;;;3.30;99.90;;;;;;4880018;28;92096;-31
2023/12/12 04:19:47;;;;;;;11.10;6.80;;;3.30;99.90;;;;;;4878238;28;94116;-34
2023/12/12 04:22:12;;;;;;;12.02;6.40;;;3.30;99.90;;;;;;4879042;28;94657;-31
2023/12/12 04:24:38;;;;;;;18.27;7.20;;;3.40;99.90;;;;;;4879396;28;95260;-34
2023/12/12 04:27:04;;;;;;;13.02;7.55;;;3.40;99.90;;;;;;4879420;28;93319;-31
2023/12/12 04:29:29;;;;;;;7.55;6.57;;;3.40;99.90;;;;;;4878999;28;94658;-32
2023/12/12 04:31:56;;;;;;;13.98;6.85;;;3.50;99.90;;;;;;4879715;28;94598;-33
2023/12/12 04:34:21;;;;;;;9.85;5.88;;;3.50;99.90;;;;;;4879129;28;94492;-32
2023/12/12 04:36:47;;;;;;;7.25;6.20;;;3.50;99.90;;;;;;4879540;28;92121;-34
2023/12/12 04:39:16;;;;;;;13.27;7.57;;;3.60;99.90;;;;;;4879590;28;95199;-32
2023/12/12 04:41:41;;;;;;;9.43;5.95;;;3.60;99.90;;;;;;4879489;28;94466;-32
2023/12/12 04:44:08;;;;;;;16.10;9.20;;;3.70;99.90;;;;;;4879523;28;94658;-33
2023/12/12 04:46:33;;;;;;;16.25;8.55;;;3.70;99.90;;;;;;4879239;28;92922;-33
2023/12/12 04:49:00;;;;;;;10.45;7.18;;;3.70;99.90;;;;;;4877516;28;95805;-29
2023/12/12 04:51:26;;;;;;;9.73;6.68;;;3.70;99.90;;;;;;4879547;28;94439;-30
2023/12/12 04:53:52;;;;;;;17.90;7.90;;;3.70;99.90;;;;;;4879843;28;93104;-32
2023/12/12 04:56:17;;;;;;;15.05;9.45;;;3.70;99.90;;;;;;4878833;28;94550;-35
2023/12/12 04:58:43;;;;;;;32.17;8.18;;;3.70;99.90;;;;;;4878757;28;94813;-30
2023/12/12 05:01:09;;;;;;;26.50;8.50;;;3.70;99.90;;;;;;4878164;28;94605;-32
2023/12/12 05:03:34;;;;;;;241.15;30.42;;;3.70;99.90;;;;;;4881740;28;93548;-34
2023/12/12 05:06:00;;;;;;;195.95;29.95;;;3.70;99.90;;;;;;4881688;28;91620;-33
2023/12/12 05:08:26;;;;;;;153.95;21.17;;;3.70;99.90;;;;;;4881388;28;94552;-32
2023/12/12 05:10:52;;;;;;;190.85;21.42;;;3.70;99.90;;;;;;4882360;28;94358;-32
2023/12/12 05:13:18;;;;;;;234.73;28.35;;;3.80;99.90;;;;;;4880813;28;94596;-32
2023/12/12 05:15:44;;;;;;;157.90;22.02;;;3.70;99.90;;;;;;4881753;28;93628;-31
2023/12/12 05:18:09;;;;;;;80.25;15.00;;;3.70;99.90;;;;;;4879466;28;94465;-33
2023/12/12 05:20:35;;;;;;;128.95;14.80;;;3.80;99.90;;;;;;4880993;28;94750;-33
2023/12/12 05:23:01;;;;;;;199.18;22.08;;;3.70;99.90;;;;;;4881628;28;94563;-32
2023/12/12 05:25:27;;;;;;;175.75;23.65;;;3.70;99.90;;;;;;4881427;28;93625;-33
2023/12/12 05:27:53;;;;;;;81.13;14.60;;;3.70;99.90;;;;;;4881181;28;95157;-34
2023/12/12 05:30:19;;;;;;;35.47;10.50;;;3.70;99.90;;;;;;4881689;28;94129;-33
2023/12/12 05:32:45;;;;;;;91.30;11.77;;;3.70;99.90;;;;;;4881950;28;93918;-32
2023/12/12 05:35:10;;;;;;;21.17;6.57;;;3.70;99.90;;;;;;4881489;28;92114;-30
2023/12/12 05:37:36;;;;;;;8.02;5.63;;;3.70;99.90;;;;;;4880741;28;95692;-31
2023/12/12 05:40:04;;;;;;;54.22;10.68;;;3.70;99.90;;;;;;4880844;28;94940;-32
2023/12/12 05:42:30;;;;;;;102.60;13.55;;;3.70;99.90;;;;;;4881830;28;93812;-32
2023/12/12 05:44:56;;;;;;;8.80;6.57;;;3.80;99.90;;;;;;4880894;28;94682;-31
2023/12/12 05:47:21;;;;;;;60.75;9.75;;;3.80;99.90;;;;;;4881917;28;94422;-31
2023/12/12 05:49:47;;;;;;;170.88;21.83;;;3.80;99.90;;;;;;4881332;28;94411;-32
2023/12/12 05:52:14;;;;;;;118.10;18.33;;;3.70;99.90;;;;;;4881335;28;93834;-34
2023/12/12 05:54:40;;;;;;;22.48;7.82;;;3.80;99.90;;;;;;4882118;28;93433;-30
2023/12/12 05:57:05;;;;;;;21.95;7.97;;;3.70;99.90;;;;;;4881335;28;94613;-31
2023/12/12 05:59:31;;;;;;;8.45;6.25;;;3.80;99.90;;;;;;4881991;28;94508;-33
2023/12/12 06:01:57;;;;;;;95.35;13.70;;;3.80;99.90;;;;;;4880727;28;95187;-34
2023/12/12 06:04:22;;;;;;;20.38;8.57;;;3.80;99.90;;;;;;4881032;28;93865;-33
2023/12/12 06:06:48;;;;;;;51.90;9.07;;;3.80;99.90;;;;;;4881254;28;94712;-33
2023/12/12 06:09:14;;;;;;;58.10;9.48;;;3.80;99.90;;;;;;4880967;28;94599;-32
2023/12/12 06:11:41;;;;;;;42.45;9.95;;;3.90;99.90;;;;;;4880844;28;93935;-33
2023/12/12 06:14:07;;;;;;;22.67;8.00;;;4.00;99.90;;;;;;4875511;28;93452;-32
2023/12/12 06:16:34;;;;;;;47.58;10.15;;;4.00;99.90;;;;;;4880825;28;95170;-32
2023/12/12 06:19:04;;;;;;;136.15;18.65;;;4.10;99.90;;;;;;4881438;28;95330;-30
2023/12/12 06:21:32;;;;;;;90.82;16.20;;;4.10;99.90;;;;;;4880450;28;95133;-33
2023/12/12 06:23:59;;;;;;;86.77;15.90;;;4.20;99.90;;;;;;4881085;28;95089;-31
2023/12/12 06:26:26;;;;;;;85.97;12.07;;;4.30;99.90;;;;;;4879824;28;95612;-32
2023/12/12 06:28:52;;;;;;;38.20;9.35;;;4.40;99.90;;;;;;4880120;28;95822;-33
2023/12/12 06:31:17;;;;;;;71.82;13.00;;;4.40;99.90;;;;;;4881247;28;94687;-29
2023/12/12 06:33:43;;;;;;;115.78;16.92;;;4.40;99.90;;;;;;4880212;28;92227;-32
2023/12/12 06:36:09;;;;;;;173.63;22.55;;;4.50;99.90;;;;;;4880570;28;94932;-33
2023/12/12 06:38:35;;;;;;;145.05;21.85;;;4.50;99.90;;;;;;4880060;28;94633;-32
2023/12/12 06:41:01;;;;;;;69.10;13.82;;;4.60;99.90;;;;;;4879744;28;93380;-34
2023/12/12 06:43:27;;;;;;;129.68;18.90;;;4.60;99.90;;;;;;4881001;28;92605;-30
2023/12/12 06:45:53;;;;;;;34.88;10.13;;;4.60;99.90;;;;;;4876886;28;95143;-35
2023/12/12 06:48:18;;;;;;;70.05;13.70;;;4.70;99.90;;;;;;4877135;28;94581;-32
2023/12/12 06:50:44;;;;;;;34.63;10.05;;;4.70;99.90;;;;;;4877407;28;94765;-33
2023/12/12 06:53:10;;;;;;;69.47;15.65;;;4.70;99.90;;;;;;4877734;28;93353;-31
2023/12/12 06:55:37;;;;;;;57.60;12.90;;;4.70;99.90;;;;;;4878583;28;94316;-33
2023/12/12 06:58:03;;;;;;;58.67;15.05;;;4.70;99.90;;;;;;4877376;28;94920;-34
2023/12/12 07:00:29;;;;;;;83.38;16.45;;;4.70;99.90;;;;;;4867584;28;93422;-31
2023/12/12 07:02:55;;;;;;;80.95;18.50;;;4.70;99.90;;;;;;4877472;28;95185;-32
2023/12/12 07:05:21;;;;;;;38.30;13.52;;;4.80;99.90;;;;;;4875910;28;94403;-32
2023/12/12 07:07:47;;;;;;;33.95;11.38;;;4.80;99.90;;;;;;4878253;28;94657;-31
2023/12/12 07:10:13;;;;;;;42.80;10.90;;;4.80;99.90;;;;;;4877887;28;93383;-30
2023/12/12 07:12:39;;;;;;;42.03;11.63;;;4.80;99.90;;;;;;4876899;28;93402;-33
2023/12/12 07:15:05;;;;;;;59.03;13.68;;;4.80;99.90;;;;;;4877505;28;95653;-32
2023/12/12 07:17:31;;;;;;;58.55;15.93;;;4.90;99.90;;;;;;4877317;28;94780;-33
2023/12/12 07:19:56;;;;;;;71.45;16.95;;;5.00;99.90;;;;;;4878140;28;93462;-32
2023/12/12 07:22:22;;;;;;;67.25;15.50;;;5.10;99.90;;;;;;4877235;28;92980;-32
2023/12/12 07:24:48;;;;;;;54.60;16.83;;;5.10;99.90;;;;;;4877847;28;95034;-31
2023/12/12 07:27:13;;;;;;;38.58;13.73;;;5.20;99.90;;;;;;4876418;28;94896;-34
2023/12/12 07:29:39;;;;;;;65.32;18.35;;;5.20;99.90;;;;;;4876517;28;92211;-32
2023/12/12 07:32:06;;;;;;;35.33;14.93;;;5.30;99.90;;;;;;4877814;28;91399;-32
2023/12/12 07:34:32;;;;;;;50.88;15.60;;;5.30;99.90;;;;;;4911044;23;95075;-32
2023/12/12 07:36:57;;;;;;;75.80;18.80;;;5.30;99.90;;;;;;4874040;28;93574;-33
2023/12/12 07:39:23;;;;;;;78.82;18.30;;;5.40;99.90;;;;;;4877432;28;94020;-31
2023/12/12 07:41:49;;;;;;;132.10;24.38;;;5.40;99.90;;;;;;4876768;28;94363;-31
2023/12/12 07:44:14;;;;;;;95.80;20.65;;;5.40;99.90;;;;;;4876552;28;94697;-32
2023/12/12 07:46:47;;;;;;;139.32;27.20;;;5.50;99.90;;;;;;5017879;28;88409;-42
2023/12/12 07:49:13;;;;;;;169.57;28.33;;;5.50;99.90;;;;;;5004399;28;88521;-38
2023/12/12 07:51:38;;;;;;;163.07;28.58;;;5.50;99.90;;;;;;5002461;28;87969;-38
2023/12/12 07:54:06;;;;;;;290.08;44.03;;;5.50;99.90;;;;;;5008314;28;90102;-37
2023/12/12 07:56:31;;;;;;;116.05;26.10;;;5.40;99.90;;;;;;5003363;27;89216;-35
2023/12/12 07:58:57;;;;;;;212.55;32.47;;;5.40;99.90;;;;;;5007950;28;87622;-39
2023/12/12 08:01:23;;;;;;;192.25;32.72;;;5.40;99.90;;;;;;5003230;28;88592;-41
2023/12/12 08:03:48;;;;;;;171.40;31.35;;;5.40;99.90;;;;;;5007228;28;90138;-36
2023/12/12 08:06:14;;;;;;;130.77;28.45;;;5.40;99.90;;;;;;5002615;28;89372;-35
2023/12/12 08:08:39;;;;;;;54.75;21.02;;;5.40;99.90;;;;;;5008172;28;88352;-38
2023/12/12 08:11:12;;;;;;;66.82;19.58;;;5.40;99.90;;;;;;5000942;28;88621;-37
2023/12/12 08:13:37;;;;;;;31.98;17.35;;;5.40;99.90;;;;;;5000361;28;90072;-38
2023/12/12 08:16:03;;;;;;;36.42;17.48;;;5.40;99.90;;;;;;5001633;27;88222;-41
2023/12/12 08:18:30;;;;;;;36.85;18.52;;;5.40;99.90;;;;;;5007924;28;89485;-36
2023/12/12 08:20:56;;;;;;;25.63;15.40;;;5.40;99.90;;;;;;4995624;28;89762;-37
2023/12/12 08:23:21;;;;;;;29.48;15.07;;;5.40;99.90;;;;;;5006394;28;90045;-38
2023/12/12 08:25:47;;;;;;;25.00;17.05;;;5.40;99.90;;;;;;5000616;28;89721;-39
2023/12/12 08:28:13;;;;;;;28.52;16.02;;;5.30;99.90;;;;;;5007300;28;89393;-43
2023/12/12 08:30:39;;;;;;;30.55;17.70;;;5.40;99.90;;;;;;5012525;27;89235;-37
2023/12/12 08:33:04;;;;;;;30.58;17.05;;;5.30;99.90;;;;;;5012481;28;90240;-37
2023/12/12 08:35:30;;;;;;;29.80;16.98;;;5.40;99.90;;;;;;5012765;27;89966;-37
2023/12/12 08:37:55;;;;;;;31.60;17.95;;;5.40;99.90;;;;;;5012812;28;88622;-39
2023/12/12 08:40:21;;;;;;;27.10;17.20;;;5.30;99.90;;;;;;5012328;28;87810;-36
2023/12/12 08:42:48;;;;;;;37.25;18.20;;;5.30;99.90;;;;;;5012726;27;90654;-38
2023/12/12 08:45:13;;;;;;;26.65;16.95;;;5.30;99.90;;;;;;5011134;27;89772;-39
2023/12/12 08:47:39;;;;;;;36.28;18.52;;;5.30;99.90;;;;;;5012512;28;89401;-43
2023/12/12 08:50:05;;;;;;;30.05;15.00;;;5.30;99.90;;;;;;5012019;28;88024;-36
2023/12/12 08:52:33;;;;;;;39.97;20.02;;;5.20;99.90;;;;;;5013375;27;91560;-38
2023/12/12 08:54:59;;;;;;;29.17;15.60;;;5.20;99.90;;;;;;5012653;27;89119;-39
2023/12/12 08:57:25;;;;;;;24.45;16.83;;;5.20;99.90;;;;;;5003584;28;88192;-39
2023/12/12 08:59:51;;;;;;;21.27;13.68;;;5.20;99.90;;;;;;4999085;28;90152;-35
2023/12/12 09:02:17;;;;;;;25.23;15.00;;;5.20;99.90;;;;;;4996292;28;90218;-36
2023/12/12 09:04:43;;;;;;;27.42;16.98;;;5.20;99.90;;;;;;4998193;28;90083;-36
2023/12/12 09:07:09;;;;;;;24.92;15.25;;;5.20;99.90;;;;;;4999562;28;87608;-35
2023/12/12 09:09:34;;;;;;;11.70;8.60;;;5.20;99.90;;;;;;4998612;28;88220;-36
2023/12/12 09:12:03;;;;;;;16.67;10.10;;;5.20;99.90;;;;;;4999625;28;91864;-44
2023/12/12 09:14:29;;;;;;;14.15;9.63;;;5.30;99.90;;;;;;4998304;28;89941;-40
2023/12/12 09:16:55;;;;;;;17.05;11.75;;;5.30;99.90;;;;;;5000208;28;89099;-41
2023/12/12 09:19:21;;;;;;;16.90;10.95;;;5.30;99.90;;;;;;4998995;28;89139;-35
2023/12/12 09:21:48;;;;;;;18.02;11.32;;;5.30;99.90;;;;;;4999078;28;90070;-36
2023/12/12 09:24:14;;;;;;;50.53;16.17;;;5.30;99.90;;;;;;4998297;28;89852;-36
2023/12/12 09:26:40;;;;;;;247.77;38.75;;;5.20;99.90;;;;;;4999093;28;89348;-36
2023/12/12 09:29:06;;;;;;;224.85;45.50;;;5.20;99.90;;;;;;4997286;28;88817;-37
2023/12/12 09:31:32;;;;;;;189.05;27.08;;;5.20;99.90;;;;;;4981644;28;91170;-38
2023/12/12 09:33:58;;;;;;;205.75;36.92;;;5.20;99.90;;;;;;4980510;28;89605;-38
2023/12/12 09:36:23;;;;;;;168.07;31.20;;;5.20;99.90;;;;;;4967115;28;88870;-40
2023/12/12 09:38:49;;;;;;;92.72;22.90;;;5.20;99.90;;;;;;4975356;28;89762;-35
2023/12/12 09:41:24;;;;;;;255.88;42.65;;;5.20;99.90;;;;;;4980286;28;90028;-39
2023/12/12 09:43:51;;;;;;;205.20;33.85;;;5.20;99.90;;;;;;4984826;28;89968;-37
2023/12/12 09:46:17;;;;;;;169.05;32.40;;;5.20;99.90;;;;;;4982128;28;88379;-34
2023/12/12 09:48:45;;;;;;;42.80;20.67;;;5.30;99.90;;;;;;4988031;28;89671;-36
2023/12/12 09:51:13;;;;;;;70.33;21.37;;;5.30;99.90;;;;;;4989868;28;90200;-37
2023/12/12 09:53:46;;;;;;;140.70;31.80;;;5.30;99.90;;;;;;4989584;28;90469;-36
2023/12/12 09:56:16;;;;;;;256.92;45.08;;;5.30;99.90;;;;;;4989862;28;88707;-38
2023/12/12 09:58:49;;;;;;;155.40;29.73;;;5.40;99.90;;;;;;4992134;28;89437;-37
2023/12/12 10:01:15;;;;;;;413.30;64.25;;;5.40;99.90;;;;;;4988629;28;90043;-33
2023/12/12 10:03:42;;;;;;;250.70;48.78;;;5.40;99.90;;;;;;4993343;28;89581;-37
2023/12/12 10:06:11;;;;;;;128.68;30.75;;;5.40;99.90;;;;;;4988746;28;89428;-41
2023/12/12 10:08:38;;;;;;;194.48;38.60;;;5.40;99.90;;;;;;4975922;28;88369;-35
2023/12/12 10:11:09;;;;;;;561.90;90.38;;;5.50;99.90;;;;;;4988539;28;89725;-39
2023/12/12 10:13:54;;;;;;;425.27;68.30;;;5.50;99.90;;;;;;4986017;28;89311;-34
2023/12/12 10:16:19;;;;;;;182.95;37.30;;;5.50;99.90;;;;;;4972824;28;89542;-40
2023/12/12 10:18:46;;;;;;;162.65;32.33;;;5.50;99.90;;;;;;4985907;28;88627;-41
2023/12/12 10:21:22;;;;;;;194.20;32.97;;;5.50;99.90;;;;;;4983195;28;88873;-39
2023/12/12 10:23:52;;;;;;;138.82;31.58;;;5.50;99.90;;;;;;4980824;28;89639;-41
2023/12/12 10:26:32;;;;;;;166.77;32.42;;;5.50;99.90;;;;;;4983113;28;88109;-34
2023/12/12 10:28:59;;;;;;;109.18;24.10;;;5.50;99.90;;;;;;4991719;28;88718;-37
2023/12/12 10:31:25;;;;;;;105.70;22.05;;;5.50;99.90;;;;;;4985931;28;89883;-33
2023/12/12 10:33:51;;;;;;;179.77;31.55;;;5.50;99.90;;;;;;4983986;28;89199;-43
2023/12/12 10:36:17;;;;;;;160.27;30.08;;;5.50;99.90;;;;;;4998359;28;88829;-36
2023/12/12 10:38:44;;;;;;;193.60;34.80;;;5.50;99.90;;;;;;4997200;28;89330;-40
2023/12/12 10:41:20;;;;;;;56.13;19.02;;;5.50;99.90;;;;;;4986212;28;90443;-42
2023/12/12 10:43:47;;;;;;;98.10;23.23;;;5.50;99.90;;;;;;4983641;28;88935;-38
2023/12/12 10:46:19;;;;;;;115.10;24.88;;;5.40;99.90;;;;;;4990991;28;88065;-36
2023/12/12 10:48:52;;;;;;;83.65;23.70;;;5.40;99.90;;;;;;4989397;28;89235;-34
2023/12/12 10:51:18;;;;;;;73.43;25.13;;;5.40;99.90;;;;;;4989557;28;91109;-43
2023/12/12 10:53:45;;;;;;;191.35;29.77;;;5.40;99.90;;;;;;4989490;28;89735;-37
2023/12/12 10:56:12;;;;;;;140.50;28.05;;;5.40;99.90;;;;;;4989553;28;88419;-40
2023/12/12 10:58:40;;;;;;;117.18;24.58;;;5.40;99.90;;;;;;4989735;28;88578;-34
2023/12/12 11:01:08;;;;;;;119.10;24.40;;;5.40;99.90;;;;;;4988295;28;90321;-40
2023/12/12 11:03:37;;;;;;;63.92;21.15;;;5.40;99.90;;;;;;4991115;28;88717;-38
2023/12/12 11:06:04;;;;;;;51.30;20.30;;;5.40;99.90;;;;;;4988275;28;88515;-36
2023/12/12 11:08:30;;;;;;;70.75;19.50;;;5.40;99.90;;;;;;4991082;28;89854;-34
2023/12/12 11:10:56;;;;;;;84.95;26.38;;;5.40;99.90;;;;;;4987172;28;90333;-39
2023/12/12 11:13:26;;;;;;;34.42;20.55;;;5.50;99.90;;;;;;4990845;28;89722;-36
2023/12/12 11:15:54;;;;;;;65.15;23.05;;;5.50;99.90;;;;;;4987653;28;88992;-41
2023/12/12 11:18:22;;;;;;;64.20;21.88;;;5.50;99.90;;;;;;4992520;28;88587;-39
2023/12/12 11:20:48;;;;;;;171.45;27.05;;;5.50;99.90;;;;;;4986700;28;91636;-37
2023/12/12 11:23:55;;;;;;;83.40;24.00;;;5.50;99.90;;;;;;4990960;28;89435;-36
2023/12/12 11:26:25;;;;;;;108.65;22.58;;;5.60;99.90;;;;;;4988775;28;88097;-35
2023/12/12 11:28:52;;;;;;;79.80;23.05;;;5.60;99.90;;;;;;4991352;28;89142;-37
2023/12/12 11:31:25;;;;;;;96.97;21.80;;;5.60;99.90;;;;;;4978020;28;90626;-35
2023/12/12 11:34:10;;;;;;;63.50;23.40;;;5.70;99.90;;;;;;4977741;28;90496;-37
2023/12/12 11:36:57;;;;;;;49.15;18.60;;;5.70;99.90;;;;;;4977071;28;88968;-38
2023/12/12 11:39:23;;;;;;;41.47;18.73;;;5.80;99.90;;;;;;4994225;28;88816;-35
2023/12/12 11:41:52;;;;;;;30.67;17.27;;;5.80;99.90;;;;;;4990251;28;90209;-38
2023/12/12 11:44:21;;;;;;;49.85;19.25;;;5.80;99.90;;;;;;4967596;28;88087;-37
2023/12/12 11:46:47;;;;;;;37.00;19.17;;;5.80;99.90;;;;;;4979668;28;88393;-37
2023/12/12 11:49:23;;;;;;;52.92;19.52;;;5.90;99.90;;;;;;4980338;28;89143;-37
2023/12/12 11:51:50;;;;;;;34.00;20.27;;;5.90;99.90;;;;;;4978244;28;90044;-37
2023/12/12 11:54:23;;;;;;;34.60;19.33;;;5.90;99.90;;;;;;4979364;28;89215;-40
2023/12/12 11:56:59;;;;;;;59.17;21.15;;;5.90;99.90;;;;;;4980050;28;88275;-36
2023/12/12 11:59:26;;;;;;;47.28;20.23;;;5.90;99.90;;;;;;4979256;28;87590;-38
2023/12/12 12:01:53;;;;;;;37.03;21.85;;;6.00;99.90;;;;;;4974068;28;90110;-43
2023/12/12 12:04:19;;;;;;;34.58;19.88;;;6.00;99.90;;;;;;4980030;28;89387;-33
2023/12/12 12:06:45;;;;;;;26.83;19.75;;;6.00;99.90;;;;;;4965136;28;88259;-36
2023/12/12 12:09:12;;;;;;;42.45;19.95;;;6.10;99.90;;;;;;4977635;28;88265;-37
2023/12/12 12:11:39;;;;;;;46.35;23.00;;;6.10;99.90;;;;;;4977597;28;90181;-36
2023/12/12 12:14:05;;;;;;;40.47;22.27;;;6.10;99.90;;;;;;4977481;28;90507;-40
2023/12/12 12:16:31;;;;;;;41.53;21.70;;;6.10;99.90;;;;;;4978754;28;88986;-43
2023/12/12 12:18:56;;;;;;;49.50;22.75;;;6.20;99.90;;;;;;4978594;28;88669;-40
2023/12/12 12:21:26;;;;;;;45.58;23.25;;;6.20;99.90;;;;;;4978735;28;90495;-42
2023/12/12 12:23:52;;;;;;;52.22;27.27;;;6.30;99.90;;;;;;4979472;28;87953;-37
2023/12/12 12:26:18;;;;;;;47.45;25.20;;;6.20;99.90;;;;;;4979411;28;89390;-40
2023/12/12 12:28:44;;;;;;;50.47;25.40;;;6.30;99.90;;;;;;4991616;28;89550;-36
2023/12/12 12:31:10;;;;;;;55.40;23.52;;;6.30;99.90;;;;;;4993527;28;90141;-42
2023/12/12 12:33:37;;;;;;;55.35;27.20;;;6.30;99.90;;;;;;4982279;28;89646;-37
2023/12/12 12:36:04;;;;;;;57.72;30.20;;;6.40;99.90;;;;;;4982011;28;89321;-33
2023/12/12 12:38:31;;;;;;;50.05;26.40;;;6.40;99.90;;;;;;4982054;28;87514;-41
2023/12/12 12:40:57;;;;;;;59.53;29.95;;;6.50;99.90;;;;;;4982977;28;88892;-37